Time;durP1;ratioP1;P1;durP2;ratioP2;P2;SDS_P1;SDS_P2;PMS_P1;PMS_P2;Temp;Humidity;BMP_temperature;BMP_pressure;BME280_temperature;BME280_humidity;BME280_pressure;Samples;Min_cycle;Max_cycle;Signal;HPM_P1;HPM_P2
2022/07/12 08:26:02;;;;;;;1.15;1.00;;;;;;;;;;1956087;68;26336;-49
2022/07/12 08:28:29;;;;;;;0.90;0.90;;;;;;;;;;1921403;71;26309;-46
2022/07/12 08:30:56;;;;;;;1.00;1.00;;;;;;;;;;1918420;73;26201;-49
2022/07/12 08:33:24;;;;;;;0.95;0.95;;;;;;;;;;1921410;73;26207;-47
2022/07/12 08:35:51;;;;;;;1.00;1.00;;;;;;;;;;1918847;73;26198;-45
2022/07/12 08:38:18;;;;;;;0.90;0.90;;;;;;;;;;1924421;73;26222;-49
2022/07/12 08:40:46;;;;;;;1.00;0.90;;;;;;;;;;1923912;73;26340;-50
2022/07/12 08:43:13;;;;;;;2.95;1.00;;;;;;;;;;1886537;74;26600;-47
2022/07/12 08:45:43;;;;;;;1.45;0.95;;;;;;;;;;1893815;74;26260;-47
2022/07/12 08:48:10;;;;;;;1.00;1.00;;;;;;;;;;1892499;74;26254;-48
2022/07/12 08:50:38;;;;;;;2.60;0.85;;;;;;;;;;1893459;74;26667;-49
2022/07/12 08:53:06;;;;;;;0.90;0.90;;;;;;;;;;1891121;74;26311;-47
2022/07/12 08:55:35;;;;;;;0.90;0.80;;;;;;;;;;1851825;75;26282;-46
2022/07/12 08:58:06;;;;;;;1.42;0.90;;;;;;;;;;1853585;76;26212;-51
2022/07/12 09:00:33;;;;;;;0.82;0.82;;;;;;;;;;1900825;74;26232;-47
2022/07/12 09:03:01;;;;;;;0.80;0.80;;;;;;;;;;1879150;74;26233;-50
2022/07/12 09:05:30;;;;;;;1.70;0.70;;;;;;;;;;1860052;75;26262;-47
2022/07/12 09:08:10;;;;;;;0.70;0.70;;;;;;;;;;1885668;74;27075;-50
2022/07/12 09:10:54;;;;;;;0.88;0.88;;;;;;;;;;1879434;74;26280;-46
2022/07/12 09:13:23;;;;;;;0.80;0.80;;;;;;;;;;1874651;75;26242;-49
2022/07/12 09:15:50;;;;;;;1.10;0.88;;;;;;;;;;1874842;75;26263;-48
2022/07/12 09:18:22;;;;;;;0.80;0.80;;;;;;;;;;1878170;75;26280;-48
2022/07/12 09:20:51;;;;;;;0.80;0.80;;;;;;;;;;1876159;74;26271;-49
2022/07/12 09:23:18;;;;;;;0.95;0.70;;;;;;;;;;1873123;74;26323;-49
2022/07/12 09:25:46;;;;;;;1.40;0.60;;;;;;;;;;1883240;75;26241;-43
2022/07/12 09:28:14;;;;;;;0.95;0.70;;;;;;;;;;1878402;75;26773;-44
2022/07/12 09:30:48;;;;;;;0.90;0.90;;;;;;;;;;1853041;75;26286;-49
2022/07/12 09:36:13;;;;;;;0.80;0.80;;;;;;;;;;1881777;75;26558;-48
2022/07/12 09:38:42;;;;;;;0.75;0.75;;;;;;;;;;1876655;75;26280;-45
2022/07/12 09:41:09;;;;;;;2.12;0.70;;;;;;;;;;1883081;74;26277;-48
2022/07/12 09:43:36;;;;;;;3.20;0.80;;;;;;;;;;1885637;74;26273;-47
2022/07/12 09:46:04;;;;;;;0.75;0.70;;;;;;;;;;1882549;75;26253;-46
2022/07/12 09:48:31;;;;;;;1.30;0.78;;;;;;;;;;1883062;75;26668;-43
2022/07/12 09:50:58;;;;;;;1.45;0.68;;;;;;;;;;1877412;75;26835;-49
2022/07/12 09:53:31;;;;;;;2.37;0.70;;;;;;;;;;1881210;74;26253;-44
2022/07/12 09:55:58;;;;;;;0.70;0.70;;;;;;;;;;1886501;74;26257;-48
2022/07/12 09:58:30;;;;;;;0.95;0.70;;;;;;;;;;1875714;75;26716;-50
2022/07/12 10:01:03;;;;;;;1.20;0.70;;;;;;;;;;1866413;75;26246;-48
2022/07/12 10:03:31;;;;;;;1.45;0.70;;;;;;;;;;1866124;75;26260;-46
2022/07/12 10:05:59;;;;;;;1.22;0.60;;;;;;;;;;1869421;75;26708;-46
2022/07/12 10:08:26;;;;;;;0.70;0.70;;;;;;;;;;1868266;74;26680;-52
2022/07/12 10:10:54;;;;;;;0.72;0.72;;;;;;;;;;1877775;75;26793;-49
2022/07/12 10:13:22;;;;;;;0.70;0.70;;;;;;;;;;1870385;75;26210;-48
2022/07/12 10:15:50;;;;;;;0.80;0.60;;;;;;;;;;1869839;75;26751;-50
2022/07/12 10:18:18;;;;;;;0.70;0.70;;;;;;;;;;1844669;76;26256;-46
2022/07/12 10:20:46;;;;;;;0.70;0.70;;;;;;;;;;1878177;74;27130;-50
2022/07/12 10:23:30;;;;;;;0.90;0.90;;;;;;;;;;1880984;74;26243;-47
2022/07/12 10:25:58;;;;;;;0.70;0.70;;;;;;;;;;1883217;74;26268;-51
2022/07/12 10:28:26;;;;;;;0.60;0.60;;;;;;;;;;1851801;76;26281;-51
2022/07/12 10:30:54;;;;;;;0.65;0.65;;;;;;;;;;1845301;76;26168;-46
2022/07/12 10:33:22;;;;;;;0.80;0.80;;;;;;;;;;1868349;74;26215;-44
2022/07/12 10:36:03;;;;;;;0.78;0.78;;;;;;;;;;1865655;74;26314;-49
2022/07/12 10:38:30;;;;;;;0.68;0.65;;;;;;;;;;1880096;75;26281;-50
2022/07/12 11:17:48;;;;;;;0.68;0.68;;;;;;;;;;1951735;68;26371;-49
2022/07/12 11:20:15;;;;;;;0.60;0.60;;;;;;;;;;1947974;72;26321;-47
2022/07/12 11:22:43;;;;;;;0.65;0.53;;;;;;;;;;1938962;72;27040;-45
2022/07/12 11:25:12;;;;;;;0.60;0.60;;;;;;;;;;1940730;72;26732;-48
2022/07/12 11:27:39;;;;;;;0.72;0.72;;;;;;;;;;1927708;73;26733;-52
2022/07/12 11:30:08;;;;;;;0.60;0.60;;;;;;;;;;1930899;72;26638;-46
2022/07/12 11:32:36;;;;;;;0.70;0.70;;;;;;;;;;1925496;72;26279;-46
2022/07/12 11:35:04;;;;;;;0.60;0.60;;;;;;;;;;1931714;72;27236;-50
2022/07/12 11:37:31;;;;;;;0.60;0.60;;;;;;;;;;1935296;72;26230;-49
2022/07/12 11:39:59;;;;;;;0.50;0.50;;;;;;;;;;1920332;73;26297;-48
2022/07/12 11:42:26;;;;;;;0.42;0.42;;;;;;;;;;1926037;72;26171;-45
2022/07/12 11:44:53;;;;;;;0.70;0.70;;;;;;;;;;1928904;72;26167;-48
2022/07/12 11:47:23;;;;;;;0.72;0.70;;;;;;;;;;1925954;72;26720;-53
2022/07/12 11:49:52;;;;;;;0.50;0.50;;;;;;;;;;1933193;72;26193;-49
2022/07/12 11:52:20;;;;;;;0.90;0.90;;;;;;;;;;1928357;72;26207;-51
2022/07/12 11:54:48;;;;;;;1.77;0.70;;;;;;;;;;1935354;72;26203;-54
2022/07/12 11:57:15;;;;;;;0.53;0.53;;;;;;;;;;1940065;72;26258;-45
2022/07/12 11:59:43;;;;;;;0.60;0.60;;;;;;;;;;1929625;72;26193;-46
2022/07/12 12:02:11;;;;;;;0.60;0.60;;;;;;;;;;1937321;72;26201;-47
2022/07/12 12:04:48;;;;;;;0.60;0.60;;;;;;;;;;1916803;72;26201;-53
2022/07/12 12:07:16;;;;;;;0.60;0.60;;;;;;;;;;1880518;74;26213;-50
2022/07/12 12:10:03;;;;;;;0.60;0.60;;;;;;;;;;1930412;72;26191;-48
2022/07/12 12:12:41;;;;;;;0.60;0.60;;;;;;;;;;1928999;72;26202;-48
2022/07/12 12:15:10;;;;;;;0.70;0.70;;;;;;;;;;1930374;72;26243;-46
2022/07/12 12:17:38;;;;;;;0.57;0.57;;;;;;;;;;1935802;72;26185;-51
2022/07/12 12:20:09;;;;;;;0.50;0.50;;;;;;;;;;1931609;73;26219;-46
2022/07/12 12:22:37;;;;;;;0.60;0.60;;;;;;;;;;1929730;72;26104;-47
2022/07/12 12:25:05;;;;;;;0.50;0.50;;;;;;;;;;1929541;73;26194;-52
2022/07/12 12:27:34;;;;;;;0.70;0.70;;;;;;;;;;1929878;72;26182;-46
2022/07/12 12:30:08;;;;;;;1.52;0.68;;;;;;;;;;1926452;72;26726;-52
2022/07/12 12:32:58;;;;;;;0.55;0.55;;;;;;;;;;1927450;73;26657;-44
2022/07/12 12:35:24;;;;;;;0.57;0.57;;;;;;;;;;1933735;73;26326;-50
2022/07/12 12:37:56;;;;;;;0.70;0.70;;;;;;;;;;1904987;73;26179;-45
2022/07/12 12:40:24;;;;;;;1.67;1.00;;;;;;;;;;1891282;74;26203;-45
2022/07/12 12:42:52;;;;;;;0.60;0.60;;;;;;;;;;1917646;72;27030;-43
2022/07/12 12:45:19;;;;;;;1.85;0.70;;;;;;;;;;1931035;72;26198;-49
2022/07/12 12:47:53;;;;;;;0.72;0.72;;;;;;;;;;1934885;72;26357;-47
2022/07/12 12:50:37;;;;;;;0.70;0.70;;;;;;;;;;1928904;73;26253;-45
2022/07/12 12:53:07;;;;;;;0.70;0.70;;;;;;;;;;1911104;73;26264;-46
2022/07/12 12:55:34;;;;;;;0.68;0.68;;;;;;;;;;1916283;73;26160;-54
2022/07/12 12:58:02;;;;;;;0.55;0.55;;;;;;;;;;1918309;72;26253;-45
2022/07/12 13:00:30;;;;;;;2.27;0.70;;;;;;;;;;1921893;73;26296;-45
2022/07/12 13:03:00;;;;;;;0.85;0.72;;;;;;;;;;1910017;73;26253;-55
2022/07/12 13:05:28;;;;;;;0.60;0.60;;;;;;;;;;1929149;73;26226;-46
2022/07/12 13:07:56;;;;;;;0.78;0.78;;;;;;;;;;1938919;73;26180;-46
2022/07/12 13:10:23;;;;;;;0.62;0.62;;;;;;;;;;1929511;72;26173;-50
2022/07/12 13:12:51;;;;;;;6.90;0.80;;;;;;;;;;1930016;72;26630;-50
2022/07/12 13:15:18;;;;;;;3.72;0.75;;;;;;;;;;1934511;72;26242;-48
2022/07/12 13:17:46;;;;;;;3.45;0.65;;;;;;;;;;1927840;73;26223;-53
2022/07/12 13:20:13;;;;;;;1.27;0.70;;;;;;;;;;1933327;73;26168;-49
2022/07/12 13:22:41;;;;;;;1.47;0.60;;;;;;;;;;1931268;72;26121;-48
2022/07/12 13:25:08;;;;;;;0.75;0.75;;;;;;;;;;1934122;72;27157;-52
2022/07/12 13:27:36;;;;;;;0.75;0.75;;;;;;;;;;1885984;72;26690;-47
2022/07/12 13:30:05;;;;;;;0.70;0.70;;;;;;;;;;1925667;72;26311;-50
2022/07/12 13:32:33;;;;;;;0.50;0.40;;;;;;;;;;1930179;72;26243;-53
2022/07/12 13:35:00;;;;;;;1.22;0.60;;;;;;;;;;1928590;72;26190;-54
2022/07/12 13:37:28;;;;;;;2.05;0.65;;;;;;;;;;1930438;73;26198;-43
2022/07/12 13:40:10;;;;;;;1.15;0.70;;;;;;;;;;1906815;73;26229;-45
2022/07/12 13:42:38;;;;;;;1.55;0.60;;;;;;;;;;1897354;73;26296;-46
2022/07/12 13:45:07;;;;;;;0.70;0.70;;;;;;;;;;1918891;73;26187;-49
2022/07/12 13:47:34;;;;;;;0.70;0.70;;;;;;;;;;1939620;72;26660;-51
2022/07/12 13:50:01;;;;;;;1.07;0.60;;;;;;;;;;1919513;72;26174;-42
2022/07/12 13:52:29;;;;;;;0.70;0.70;;;;;;;;;;1932805;72;26184;-49
2022/07/12 13:54:56;;;;;;;0.93;0.70;;;;;;;;;;1903159;73;26267;-55
2022/07/12 13:57:23;;;;;;;0.60;0.60;;;;;;;;;;1906503;73;26264;-54
2022/07/12 13:59:52;;;;;;;2.67;0.93;;;;;;;;;;1922596;72;26239;-45
2022/07/12 14:02:19;;;;;;;0.50;0.50;;;;;;;;;;1926587;72;26170;-48
2022/07/12 14:04:46;;;;;;;1.42;0.65;;;;;;;;;;1929674;72;26269;-46
2022/07/12 14:07:14;;;;;;;2.08;0.62;;;;;;;;;;1929583;72;26230;-50
2022/07/12 14:09:41;;;;;;;0.75;0.60;;;;;;;;;;1923860;72;26634;-53
2022/07/12 14:12:09;;;;;;;0.85;0.60;;;;;;;;;;1929787;72;26164;-45
2022/07/12 14:17:22;;;;;;;0.57;0.57;;;;;;;;;;1924801;72;26153;-47
2022/07/12 14:19:49;;;;;;;2.75;0.60;;;;;;;;;;1932056;72;26578;-49
2022/07/12 14:22:17;;;;;;;0.70;0.70;;;;;;;;;;1936992;72;26237;-44
2022/07/12 14:24:44;;;;;;;0.60;0.60;;;;;;;;;;1940419;72;26241;-47
2022/07/12 14:27:11;;;;;;;0.50;0.50;;;;;;;;;;1931054;72;26758;-51
2022/07/12 14:29:39;;;;;;;0.53;0.53;;;;;;;;;;1937668;72;26294;-49
2022/07/12 14:32:06;;;;;;;0.60;0.60;;;;;;;;;;1932379;72;26184;-48
2022/07/12 14:34:33;;;;;;;0.50;0.50;;;;;;;;;;1931864;72;26805;-46
2022/07/12 14:37:01;;;;;;;0.60;0.60;;;;;;;;;;1920636;72;26720;-53
2022/07/12 14:39:29;;;;;;;0.50;0.50;;;;;;;;;;1895836;73;26153;-46
2022/07/12 14:41:56;;;;;;;0.60;0.60;;;;;;;;;;1938609;73;26635;-47
2022/07/12 14:44:25;;;;;;;0.60;0.50;;;;;;;;;;1934509;73;26240;-47
2022/07/12 14:46:55;;;;;;;1.27;0.50;;;;;;;;;;1924057;72;26668;-52
2022/07/12 14:49:23;;;;;;;1.37;0.50;;;;;;;;;;1933171;73;27030;-43
2022/07/12 14:51:50;;;;;;;0.53;0.47;;;;;;;;;;1934240;72;26220;-48
2022/07/12 14:54:18;;;;;;;0.60;0.60;;;;;;;;;;1932243;72;26599;-45
2022/07/12 14:56:45;;;;;;;0.42;0.42;;;;;;;;;;1929588;72;26227;-49
2022/07/12 14:59:12;;;;;;;0.47;0.47;;;;;;;;;;1892809;74;26289;-51
2022/07/12 15:01:40;;;;;;;0.50;0.50;;;;;;;;;;1861605;75;26280;-51
2022/07/12 15:04:07;;;;;;;0.40;0.40;;;;;;;;;;1868458;75;25648;-48
2022/07/12 15:06:34;;;;;;;0.60;0.60;;;;;;;;;;1859536;75;26291;-47
2022/07/12 15:09:01;;;;;;;0.60;0.60;;;;;;;;;;1860618;75;26205;-49
2022/07/12 15:11:29;;;;;;;1.60;0.60;;;;;;;;;;1867619;75;26313;-44
2022/07/12 15:13:57;;;;;;;0.50;0.50;;;;;;;;;;1868516;75;26817;-48
2022/07/12 15:16:24;;;;;;;0.55;0.55;;;;;;;;;;1871950;72;50647;-89
2022/07/12 15:18:51;;;;;;;1.00;0.55;;;;;;;;;;1873514;76;26709;-88
2022/07/12 15:21:18;;;;;;;0.45;0.45;;;;;;;;;;1881078;75;26211;-87
2022/07/12 15:23:46;;;;;;;0.50;0.50;;;;;;;;;;1873162;75;26188;-89
2022/07/12 15:26:13;;;;;;;1.55;0.45;;;;;;;;;;1870772;75;26641;-88
2022/07/12 15:28:55;;;;;;;0.50;0.50;;;;;;;;;;1890611;75;26297;-89
2022/07/12 15:31:22;;;;;;;0.40;0.40;;;;;;;;;;1851570;75;26261;-88
2022/07/12 15:33:49;;;;;;;0.65;0.60;;;;;;;;;;1861478;75;26282;-88
2022/07/12 15:36:17;;;;;;;0.40;0.40;;;;;;;;;;1869172;76;26317;-92
2022/07/12 15:38:44;;;;;;;0.40;0.40;;;;;;;;;;1877472;75;26247;-89
2022/07/12 15:41:12;;;;;;;0.47;0.47;;;;;;;;;;1876138;75;26794;-88
2022/07/12 15:43:39;;;;;;;0.50;0.50;;;;;;;;;;1859113;75;26284;-88
2022/07/12 15:46:07;;;;;;;0.55;0.40;;;;;;;;;;1871806;75;26326;-89
2022/07/12 15:48:35;;;;;;;0.33;0.33;;;;;;;;;;1877662;75;26311;-88
2022/07/12 15:51:02;;;;;;;0.60;0.53;;;;;;;;;;1883993;75;26202;-91
2022/07/12 15:53:30;;;;;;;0.50;0.50;;;;;;;;;;1880905;75;26319;-88
2022/07/12 15:55:59;;;;;;;0.40;0.40;;;;;;;;;;1903977;74;26324;-88
2022/07/12 15:58:30;;;;;;;0.30;0.30;;;;;;;;;;1874924;74;26341;-90
2022/07/12 16:00:58;;;;;;;4.05;0.60;;;;;;;;;;1894191;74;26270;-88
2022/07/12 16:03:26;;;;;;;0.50;0.50;;;;;;;;;;1902860;74;26286;-87
2022/07/12 16:05:55;;;;;;;0.53;0.53;;;;;;;;;;1894930;74;26345;-89
2022/07/12 16:08:22;;;;;;;0.40;0.40;;;;;;;;;;1897104;74;26221;-88
2022/07/12 16:10:50;;;;;;;0.35;0.35;;;;;;;;;;1928723;72;26219;-88
2022/07/12 16:13:17;;;;;;;0.47;0.47;;;;;;;;;;1940928;72;26290;-88
2022/07/12 16:15:44;;;;;;;0.30;0.30;;;;;;;;;;1937589;72;26241;-88
2022/07/12 16:18:12;;;;;;;0.50;0.50;;;;;;;;;;1935402;72;26198;-87
2022/07/12 16:20:41;;;;;;;0.42;0.42;;;;;;;;;;1944706;72;26209;-88
2022/07/12 16:23:08;;;;;;;0.40;0.40;;;;;;;;;;1952419;72;26281;-88
2022/07/12 16:25:36;;;;;;;0.88;0.45;;;;;;;;;;1942738;72;26332;-88
2022/07/12 16:28:04;;;;;;;0.42;0.42;;;;;;;;;;1912052;73;26302;-89
2022/07/12 16:30:31;;;;;;;0.60;0.60;;;;;;;;;;1932674;74;26250;-90
2022/07/12 16:33:00;;;;;;;0.40;0.40;;;;;;;;;;1937035;74;26198;-87
2022/07/12 16:35:27;;;;;;;0.50;0.50;;;;;;;;;;1951430;72;26292;-90
2022/07/12 16:37:55;;;;;;;0.42;0.42;;;;;;;;;;1931870;74;26253;-91
2022/07/12 16:40:22;;;;;;;0.40;0.40;;;;;;;;;;1935604;73;26632;-86
2022/07/12 16:42:50;;;;;;;0.88;0.68;;;;;;;;;;1918720;73;26268;-89
2022/07/12 16:45:17;;;;;;;0.50;0.50;;;;;;;;;;1934703;72;26174;-89
2022/07/12 16:47:44;;;;;;;1.75;0.50;;;;;;;;;;1937416;73;26242;-87
2022/07/12 16:50:11;;;;;;;0.50;0.50;;;;;;;;;;1927877;72;26641;-87
2022/07/12 16:52:39;;;;;;;0.78;0.50;;;;;;;;;;1939228;72;26198;-87
2022/07/12 16:55:07;;;;;;;1.40;0.65;;;;;;;;;;1933009;72;26680;-89
2022/07/12 16:57:35;;;;;;;0.40;0.40;;;;;;;;;;1948287;72;26313;-87
2022/07/12 17:00:06;;;;;;;1.77;0.47;;;;;;;;;;1938459;72;26293;-89
2022/07/12 17:02:33;;;;;;;4.22;0.60;;;;;;;;;;1932184;72;26307;-87
2022/07/12 17:05:01;;;;;;;0.50;0.50;;;;;;;;;;1939046;72;26277;-85
2022/07/12 17:07:29;;;;;;;1.95;0.60;;;;;;;;;;1940424;72;26322;-86
2022/07/12 17:09:56;;;;;;;0.60;0.60;;;;;;;;;;1946548;72;26661;-84
2022/07/12 17:12:23;;;;;;;0.80;0.80;;;;;;;;;;1940378;72;26285;-88
2022/07/12 17:14:51;;;;;;;1.02;0.88;;;;;;;;;;1940550;72;26366;-87
2022/07/12 17:17:18;;;;;;;0.93;0.93;;;;;;;;;;1933452;73;26664;-87
2022/07/12 17:19:45;;;;;;;1.20;1.10;;;;;;;;;;1930008;72;26740;-87
2022/07/12 17:22:12;;;;;;;1.40;1.20;;;;;;;;;;1929696;72;26711;-87
2022/07/12 17:24:40;;;;;;;1.50;1.40;;;;;;;;;;1938497;72;26297;-85
2022/07/12 17:27:07;;;;;;;1.30;1.30;;;;;;;;;;1924841;73;26237;-86
2022/07/12 17:29:34;;;;;;;1.60;1.50;;;;;;;;;;1936571;72;26696;-85
2022/07/12 17:32:01;;;;;;;1.52;1.52;;;;;;;;;;1929050;72;26721;-88
2022/07/12 17:34:30;;;;;;;1.55;1.50;;;;;;;;;;1934259;73;26810;-85
2022/07/12 17:36:58;;;;;;;1.98;1.50;;;;;;;;;;1937708;72;26318;-85
2022/07/12 17:39:25;;;;;;;1.70;1.60;;;;;;;;;;1940669;73;26331;-89
2022/07/12 17:41:53;;;;;;;1.70;1.60;;;;;;;;;;1934109;72;26326;-86
2022/07/12 17:44:21;;;;;;;1.60;1.50;;;;;;;;;;1947881;72;26213;-86
2022/07/12 17:46:49;;;;;;;1.50;1.47;;;;;;;;;;1936059;73;26235;-87
2022/07/12 17:49:16;;;;;;;1.50;1.40;;;;;;;;;;1941182;72;26637;-85
2022/07/12 17:51:44;;;;;;;1.62;1.52;;;;;;;;;;1940388;72;26666;-87
2022/07/12 17:54:11;;;;;;;1.40;1.30;;;;;;;;;;1928636;72;26772;-86
2022/07/12 17:56:38;;;;;;;1.37;1.27;;;;;;;;;;1938894;72;26230;-86
2022/07/12 17:59:05;;;;;;;1.37;1.37;;;;;;;;;;1933072;72;26289;-86
2022/07/12 18:01:33;;;;;;;1.40;1.40;;;;;;;;;;1932450;72;26347;-89
2022/07/12 18:04:00;;;;;;;3.05;1.32;;;;;;;;;;1929152;72;26285;-86
2022/07/12 18:06:28;;;;;;;1.25;1.25;;;;;;;;;;1943498;72;26301;-88
2022/07/12 18:08:55;;;;;;;1.75;1.30;;;;;;;;;;1928792;74;26269;-88
2022/07/12 18:19:38;;;;;;;3.40;1.10;;;;;;;;;;1956979;72;26626;-89
2022/07/12 18:22:06;;;;;;;1.20;1.20;;;;;;;;;;1936936;73;26250;-90
2022/07/12 18:24:33;;;;;;;1.02;1.02;;;;;;;;;;1943272;72;26211;-90
2022/07/12 18:27:01;;;;;;;1.15;1.05;;;;;;;;;;1937489;72;26760;-89
2022/07/12 18:29:28;;;;;;;1.10;1.10;;;;;;;;;;1959937;72;26233;-88
2022/07/12 18:31:56;;;;;;;1.60;1.00;;;;;;;;;;1948358;72;26800;-88
2022/07/12 18:34:23;;;;;;;2.30;0.98;;;;;;;;;;1945381;72;26308;-88
2022/07/12 18:36:51;;;;;;;2.72;1.00;;;;;;;;;;1926545;73;26185;-90
2022/07/12 18:39:19;;;;;;;1.10;1.10;;;;;;;;;;1939112;73;26234;-89
2022/07/12 18:41:48;;;;;;;1.90;1.00;;;;;;;;;;1942146;73;26276;-90
2022/07/12 18:44:16;;;;;;;0.95;0.95;;;;;;;;;;1937288;72;26276;-89
2022/07/12 18:46:44;;;;;;;0.90;0.90;;;;;;;;;;1942027;72;26285;-89
2022/07/12 18:49:12;;;;;;;2.75;1.07;;;;;;;;;;1944838;72;26234;-87
2022/07/12 18:51:39;;;;;;;0.93;0.93;;;;;;;;;;1934961;73;26203;-89
2022/07/12 18:54:06;;;;;;;0.90;0.90;;;;;;;;;;1941316;72;26300;-89
2022/07/12 18:56:34;;;;;;;0.90;0.90;;;;;;;;;;1934486;73;26181;-90
2022/07/12 18:59:02;;;;;;;1.25;0.80;;;;;;;;;;1931158;72;26315;-91
2022/07/12 19:01:30;;;;;;;0.90;0.90;;;;;;;;;;1927381;72;26216;-90
2022/07/12 19:03:57;;;;;;;0.80;0.80;;;;;;;;;;1926928;72;26218;-89
2022/07/12 19:06:25;;;;;;;1.75;1.02;;;;;;;;;;1951034;72;26244;-89
2022/07/12 19:08:52;;;;;;;0.80;0.80;;;;;;;;;;1936330;74;26610;-88
2022/07/12 19:11:19;;;;;;;1.85;0.93;;;;;;;;;;1938277;72;26306;-91
2022/07/12 19:13:47;;;;;;;0.90;0.90;;;;;;;;;;1938887;72;27069;-89
2022/07/12 19:16:14;;;;;;;0.90;0.90;;;;;;;;;;1938784;72;26323;-88
2022/07/12 19:18:41;;;;;;;0.78;0.78;;;;;;;;;;1952480;72;26237;-89
2022/07/12 19:21:09;;;;;;;0.78;0.78;;;;;;;;;;1943315;72;26228;-90
2022/07/12 19:23:36;;;;;;;0.80;0.80;;;;;;;;;;1944326;72;26261;-90
2022/07/12 19:26:03;;;;;;;1.75;0.93;;;;;;;;;;1927663;72;26226;-91
2022/07/12 19:28:31;;;;;;;0.80;0.80;;;;;;;;;;1945078;72;26710;-88
2022/07/12 19:30:58;;;;;;;0.80;0.80;;;;;;;;;;1948530;72;26277;-90
2022/07/12 19:33:26;;;;;;;0.80;0.80;;;;;;;;;;1940991;72;26229;-90
2022/07/12 19:35:53;;;;;;;0.95;0.95;;;;;;;;;;1936527;74;26208;-90
2022/07/12 19:38:22;;;;;;;0.75;0.75;;;;;;;;;;1940507;72;26839;-92
2022/07/12 19:40:50;;;;;;;1.27;0.65;;;;;;;;;;1941678;72;26222;-89
2022/07/12 19:43:18;;;;;;;0.70;0.70;;;;;;;;;;1936043;72;26974;-90
2022/07/12 19:45:45;;;;;;;0.80;0.80;;;;;;;;;;1938143;73;26195;-89
2022/07/12 19:48:13;;;;;;;0.70;0.70;;;;;;;;;;1935066;72;26278;-87
2022/07/12 19:50:40;;;;;;;1.52;0.80;;;;;;;;;;1944858;72;26217;-89
2022/07/12 19:53:07;;;;;;;1.77;0.80;;;;;;;;;;1933683;72;26905;-89
2022/07/12 19:55:41;;;;;;;1.22;0.80;;;;;;;;;;1939872;72;26214;-89
2022/07/12 19:58:08;;;;;;;0.90;0.90;;;;;;;;;;1937515;73;26228;-88
2022/07/12 20:00:36;;;;;;;3.00;0.95;;;;;;;;;;1947607;72;26187;-88
2022/07/12 20:08:49;;;;;;;0.70;0.70;;;;;;;;;;1875116;71;50652;-52
2022/07/12 20:11:16;;;;;;;1.22;0.80;;;;;;;;;;1871048;75;26254;-53
2022/07/12 20:13:43;;;;;;;0.70;0.70;;;;;;;;;;1877821;76;26191;-46
2022/07/12 20:16:10;;;;;;;0.70;0.70;;;;;;;;;;1863756;75;26695;-44
2022/07/12 20:18:38;;;;;;;0.72;0.70;;;;;;;;;;1863793;75;26630;-51
2022/07/12 20:21:05;;;;;;;0.60;0.60;;;;;;;;;;1880057;76;26649;-46
2022/07/12 20:23:32;;;;;;;0.70;0.70;;;;;;;;;;1878996;76;26213;-46
2022/07/12 20:25:59;;;;;;;0.70;0.70;;;;;;;;;;1871106;75;26198;-47
2022/07/12 20:28:27;;;;;;;0.70;0.70;;;;;;;;;;1872410;75;26287;-41
2022/07/12 20:30:54;;;;;;;0.80;0.70;;;;;;;;;;1874360;75;26964;-47
2022/07/12 20:36:06;;;;;;;0.60;0.60;;;;;;;;;;1873603;76;26219;-43
2022/07/12 20:38:34;;;;;;;0.70;0.70;;;;;;;;;;1876513;75;27250;-49
2022/07/12 20:41:04;;;;;;;0.72;0.72;;;;;;;;;;1878248;75;26273;-47
2022/07/12 20:43:40;;;;;;;0.57;0.57;;;;;;;;;;1873161;76;26258;-47
2022/07/12 20:46:17;;;;;;;0.70;0.70;;;;;;;;;;1875669;76;26206;-48
2022/07/12 20:48:37;;;;;;;0.70;0.70;;;;;;;;;;1870055;76;26656;-48
2022/07/12 20:51:04;;;;;;;0.80;0.80;;;;;;;;;;1876608;75;26297;-49
2022/07/12 20:53:32;;;;;;;1.15;1.10;;;;;;;;;;1880227;75;26654;-45
2022/07/12 20:56:05;;;;;;;0.75;0.75;;;;;;;;;;1870126;75;26162;-44
2022/07/12 20:58:32;;;;;;;0.70;0.70;;;;;;;;;;1860908;75;26229;-47
2022/07/12 21:01:00;;;;;;;0.70;0.70;;;;;;;;;;1870798;75;26184;-44
2022/07/12 21:03:27;;;;;;;0.95;0.95;;;;;;;;;;1856515;75;26261;-45
2022/07/12 21:05:56;;;;;;;0.90;0.90;;;;;;;;;;1870822;75;26334;-50
2022/07/12 21:08:23;;;;;;;0.78;0.78;;;;;;;;;;1867753;75;26805;-45
2022/07/12 21:10:53;;;;;;;0.70;0.70;;;;;;;;;;1877091;75;26356;-50
2022/07/12 21:13:21;;;;;;;0.80;0.80;;;;;;;;;;1878953;76;26191;-49
2022/07/12 21:15:49;;;;;;;0.68;0.68;;;;;;;;;;1879209;75;26280;-44
2022/07/12 21:18:16;;;;;;;0.62;0.60;;;;;;;;;;1879545;75;26210;-45
2022/07/12 21:20:44;;;;;;;0.68;0.68;;;;;;;;;;1879680;76;26260;-48
2022/07/12 21:23:11;;;;;;;0.70;0.70;;;;;;;;;;1876664;75;26280;-46
2022/07/12 21:25:38;;;;;;;2.30;0.80;;;;;;;;;;1871249;75;26268;-51
2022/07/12 21:28:06;;;;;;;0.70;0.70;;;;;;;;;;1875214;75;26738;-46
2022/07/12 21:30:33;;;;;;;0.72;0.72;;;;;;;;;;1873830;75;26214;-48
2022/07/12 21:33:00;;;;;;;0.80;0.80;;;;;;;;;;1880662;75;26202;-44
2022/07/12 21:35:28;;;;;;;0.70;0.70;;;;;;;;;;1879687;75;26272;-46
2022/07/12 21:37:55;;;;;;;0.78;0.78;;;;;;;;;;1879885;75;26214;-49
2022/07/12 21:40:22;;;;;;;1.17;0.55;;;;;;;;;;1875803;75;26351;-45
2022/07/12 21:42:50;;;;;;;0.70;0.70;;;;;;;;;;1873931;75;26214;-44
2022/07/12 21:45:17;;;;;;;0.62;0.62;;;;;;;;;;1874424;75;26229;-49
2022/07/12 21:47:44;;;;;;;0.70;0.70;;;;;;;;;;1875893;75;27183;-48
2022/07/12 21:50:12;;;;;;;0.70;0.70;;;;;;;;;;1880248;76;26245;-48
2022/07/12 21:52:39;;;;;;;0.60;0.60;;;;;;;;;;1877396;75;26178;-45
2022/07/12 21:55:07;;;;;;;1.07;0.62;;;;;;;;;;1878240;75;26274;-47
2022/07/12 21:57:34;;;;;;;1.75;0.70;;;;;;;;;;1878096;75;26261;-44
2022/07/12 22:00:01;;;;;;;0.70;0.70;;;;;;;;;;1877191;76;26331;-45
2022/07/12 22:02:30;;;;;;;0.80;0.80;;;;;;;;;;1878649;75;26261;-46
2022/07/12 22:04:57;;;;;;;0.70;0.70;;;;;;;;;;1879535;75;26217;-50
2022/07/12 22:07:24;;;;;;;0.80;0.80;;;;;;;;;;1879486;75;26688;-42
2022/07/12 22:09:51;;;;;;;0.80;0.80;;;;;;;;;;1876090;76;26880;-49
2022/07/12 22:12:19;;;;;;;0.90;0.90;;;;;;;;;;1876851;75;27129;-47
2022/07/12 22:14:46;;;;;;;1.00;1.00;;;;;;;;;;1879376;75;26373;-47
2022/07/12 22:17:13;;;;;;;0.88;0.88;;;;;;;;;;1879004;75;26279;-46
2022/07/12 22:19:40;;;;;;;0.90;0.90;;;;;;;;;;1877783;75;26276;-50
2022/07/12 22:22:08;;;;;;;0.90;0.90;;;;;;;;;;1875506;75;26265;-46
2022/07/12 22:24:35;;;;;;;0.80;0.80;;;;;;;;;;1876129;76;26713;-52
2022/07/12 22:27:02;;;;;;;1.20;1.10;;;;;;;;;;1872992;75;26638;-48
2022/07/12 22:29:29;;;;;;;0.90;0.90;;;;;;;;;;1880183;75;26260;-44
2022/07/12 22:31:57;;;;;;;1.15;1.00;;;;;;;;;;1871902;76;26237;-47
2022/07/12 22:34:25;;;;;;;0.72;0.72;;;;;;;;;;1876562;75;26190;-48
2022/07/12 22:36:52;;;;;;;0.98;0.90;;;;;;;;;;1878642;75;26311;-51
2022/07/12 22:39:20;;;;;;;0.90;0.90;;;;;;;;;;1877151;75;26242;-47
2022/07/12 22:41:47;;;;;;;1.15;1.10;;;;;;;;;;1879944;76;26202;-45
2022/07/12 22:44:14;;;;;;;1.10;1.00;;;;;;;;;;1880075;75;26277;-47
2022/07/12 22:46:41;;;;;;;0.93;0.93;;;;;;;;;;1878435;75;26197;-46
2022/07/12 22:49:09;;;;;;;0.90;0.90;;;;;;;;;;1878369;75;26206;-46
2022/07/12 22:51:48;;;;;;;0.90;0.90;;;;;;;;;;1874610;75;26568;-42
2022/07/12 22:54:18;;;;;;;1.00;1.00;;;;;;;;;;1875086;75;26311;-42
2022/07/12 22:56:46;;;;;;;0.85;0.85;;;;;;;;;;1882606;75;26221;-46
2022/07/12 22:59:13;;;;;;;0.95;0.95;;;;;;;;;;1880894;76;26292;-47
2022/07/12 23:01:41;;;;;;;1.05;1.05;;;;;;;;;;1875101;76;26216;-48
2022/07/12 23:04:08;;;;;;;0.90;0.90;;;;;;;;;;1855453;76;26292;-44
2022/07/12 23:06:36;;;;;;;0.93;0.93;;;;;;;;;;1869369;76;26256;-46
2022/07/12 23:09:08;;;;;;;2.25;1.00;;;;;;;;;;1870514;76;26308;-47
2022/07/12 23:11:35;;;;;;;0.98;0.98;;;;;;;;;;1878090;75;26201;-50
2022/07/12 23:14:03;;;;;;;0.80;0.80;;;;;;;;;;1870384;75;26283;-49
2022/07/12 23:16:30;;;;;;;0.90;0.90;;;;;;;;;;1874296;75;26272;-45
2022/07/12 23:18:57;;;;;;;0.80;0.80;;;;;;;;;;1869517;75;26308;-46
2022/07/12 23:21:25;;;;;;;0.80;0.80;;;;;;;;;;1868205;75;26253;-42
2022/07/12 23:23:55;;;;;;;1.00;1.00;;;;;;;;;;1869912;75;26694;-43
2022/07/12 23:26:21;;;;;;;1.05;0.80;;;;;;;;;;1878154;75;26351;-43
2022/07/12 23:28:49;;;;;;;0.72;0.72;;;;;;;;;;1867143;75;26716;-41
2022/07/12 23:31:16;;;;;;;0.80;0.80;;;;;;;;;;1879106;75;26194;-42
2022/07/12 23:33:43;;;;;;;0.93;0.93;;;;;;;;;;1876242;75;26730;-43
2022/07/12 23:36:11;;;;;;;0.82;0.82;;;;;;;;;;1881499;75;26292;-47
2022/07/12 23:38:38;;;;;;;0.70;0.70;;;;;;;;;;1874690;75;25980;-44
2022/07/12 23:41:05;;;;;;;0.90;0.90;;;;;;;;;;1877264;75;26564;-44
2022/07/12 23:43:33;;;;;;;0.72;0.72;;;;;;;;;;1879225;75;26198;-45
2022/07/12 23:46:01;;;;;;;0.80;0.80;;;;;;;;;;1872935;74;26306;-48
2022/07/12 23:48:29;;;;;;;0.80;0.80;;;;;;;;;;1870279;75;26218;-44
2022/07/12 23:50:56;;;;;;;1.30;0.88;;;;;;;;;;1872229;75;26238;-45
2022/07/12 23:53:23;;;;;;;2.20;0.82;;;;;;;;;;1870939;75;26198;-49
2022/07/12 23:55:51;;;;;;;0.90;0.90;;;;;;;;;;1877438;75;26199;-42
2022/07/12 23:58:18;;;;;;;0.80;0.80;;;;;;;;;;1880263;75;26720;-43
